Time;durP1;ratioP1;P1;durP2;ratioP2;P2;SDS_P1;SDS_P2;PMS_P1;PMS_P2;Temp;Humidity;BMP_temperature;BMP_pressure;BME280_temperature;BME280_humidity;BME280_pressure;Samples;Min_cycle;Max_cycle;Signal;HPM_P1;HPM_P2
2022/09/14 00:01:18;;;;;;;11.10;6.27;;;;;;;15.03;100.00;100588.66;5073096;28;20484;-50
2022/09/14 00:03:55;;;;;;;13.60;6.10;;;;;;;15.03;100.00;100572.53;5073025;28;20430;-46
2022/09/14 00:06:24;;;;;;;8.73;6.13;;;;;;;15.05;100.00;100575.00;5073372;28;20484;-46
2022/09/14 00:08:52;;;;;;;9.50;6.07;;;;;;;15.07;100.00;100575.59;5072766;28;20843;-44
2022/09/14 00:11:23;;;;;;;19.63;6.17;;;;;;;15.08;100.00;100574.56;5072792;28;20508;-48
2022/09/14 00:13:53;;;;;;;14.80;6.70;;;;;;;15.06;100.00;100576.63;5072744;28;20415;-45
2022/09/14 00:16:22;;;;;;;12.90;6.63;;;;;;;15.01;100.00;100565.75;5072767;28;20466;-45
2022/09/14 00:18:51;;;;;;;12.63;6.20;;;;;;;15.02;100.00;100564.72;5072579;28;20436;-45
2022/09/14 00:21:19;;;;;;;13.20;6.90;;;;;;;15.00;100.00;100564.13;5072836;28;20507;-48
2022/09/14 00:23:47;;;;;;;13.30;6.50;;;;;;;14.96;100.00;100566.47;5072657;28;20460;-50
2022/09/14 00:26:17;;;;;;;9.43;5.70;;;;;;;14.98;100.00;100564.34;5072718;28;20846;-49
2022/09/14 00:28:48;;;;;;;18.17;6.40;;;;;;;14.95;100.00;100557.59;5072444;28;20484;-43
2022/09/14 00:31:16;;;;;;;11.23;6.07;;;;;;;14.94;100.00;100555.94;5072214;28;20474;-46
2022/09/14 00:33:47;;;;;;;11.53;6.10;;;;;;;14.96;100.00;100550.34;5072538;28;20435;-44
2022/09/14 00:36:16;;;;;;;11.30;5.83;;;;;;;14.94;100.00;100545.19;5072589;28;20874;-44
2022/09/14 00:38:46;;;;;;;8.03;6.10;;;;;;;14.90;100.00;100541.31;5072305;28;20433;-45
2022/09/14 00:41:15;;;;;;;10.57;5.60;;;;;;;14.85;100.00;100543.06;5071994;28;20446;-48
2022/09/14 00:43:56;;;;;;;9.30;5.17;;;;;;;14.77;100.00;100538.03;5072352;28;20426;-46
2022/09/14 00:46:25;;;;;;;10.83;5.43;;;;;;;14.70;100.00;100554.22;5072382;28;20993;-49
2022/09/14 00:48:54;;;;;;;10.43;6.60;;;;;;;14.64;100.00;100540.88;5072024;28;20484;-47
2022/09/14 00:51:22;;;;;;;10.13;5.63;;;;;;;14.56;100.00;100544.72;5071639;28;20459;-53
2022/09/14 00:53:50;;;;;;;13.60;6.47;;;;;;;14.49;100.00;100546.66;5069582;28;20478;-50
2022/09/14 00:56:18;;;;;;;8.00;5.30;;;;;;;14.44;100.00;100548.41;5072249;28;20473;-52
2022/09/14 00:58:49;;;;;;;7.30;5.40;;;;;;;14.41;100.00;100544.31;5072239;28;20430;-44
2022/09/14 01:01:19;;;;;;;16.17;7.40;;;;;;;14.40;100.00;100538.13;5071850;28;20453;-49
2022/09/14 01:03:47;;;;;;;13.77;6.20;;;;;;;14.45;100.00;100550.03;5071946;28;20499;-47
2022/09/14 01:06:25;;;;;;;10.07;6.37;;;;;;;14.50;100.00;100544.81;5071824;28;20434;-45
2022/09/14 01:09:08;;;;;;;10.70;7.00;;;;;;;14.55;100.00;100545.75;5071664;28;20453;-50
2022/09/14 01:12:09;;;;;;;10.20;6.67;;;;;;;14.62;100.00;100540.31;5072027;28;20508;-47
2022/09/14 01:14:45;;;;;;;10.00;6.13;;;;;;;14.68;100.00;100536.72;5064443;28;20442;-45
2022/09/14 01:17:25;;;;;;;17.10;6.57;;;;;;;14.74;100.00;100531.25;5072142;28;20516;-51
2022/09/14 01:20:16;;;;;;;13.43;7.80;;;;;;;14.78;100.00;100527.03;5071582;28;20461;-46
2022/09/14 01:22:51;;;;;;;12.10;7.40;;;;;;;14.80;100.00;100524.16;5071583;28;20496;-49
2022/09/14 01:25:37;;;;;;;7.90;7.10;;;;;;;14.76;100.00;100522.97;5071877;28;20429;-54
2022/09/14 01:28:13;;;;;;;17.67;8.30;;;;;;;14.74;100.00;100519.69;5071945;28;20854;-48
2022/09/14 01:30:43;;;;;;;11.77;6.43;;;;;;;14.75;100.00;100518.66;5071182;28;20473;-48
2022/09/14 01:33:17;;;;;;;16.50;8.00;;;;;;;14.75;100.00;100516.81;5071468;28;20419;-46
2022/09/14 01:35:51;;;;;;;13.67;6.93;;;;;;;14.77;100.00;100519.25;5071612;28;21231;-46
2022/09/14 01:38:24;;;;;;;11.50;6.90;;;;;;;14.78;100.00;100527.03;5071778;28;20418;-45
2022/09/14 01:40:52;;;;;;;10.37;7.03;;;;;;;14.80;100.00;100524.97;5071160;28;20462;-45
2022/09/14 01:43:26;;;;;;;18.77;7.23;;;;;;;14.79;100.00;100517.13;5071565;28;20434;-46
2022/09/14 01:45:56;;;;;;;12.57;6.50;;;;;;;14.79;100.00;100514.44;5071549;28;20487;-45
2022/09/14 01:48:31;;;;;;;11.93;7.47;;;;;;;14.77;100.00;100522.75;5071779;28;20434;-45
2022/09/14 01:51:03;;;;;;;10.90;5.73;;;;;;;14.72;100.00;100521.81;5071055;28;20515;-45
2022/09/14 01:53:36;;;;;;;10.80;6.10;;;;;;;14.65;100.00;100516.53;5071333;28;20468;-42
2022/09/14 01:56:10;;;;;;;13.80;6.07;;;;;;;14.57;100.00;100524.91;5071652;28;20466;-51
2022/09/14 01:58:44;;;;;;;10.13;7.17;;;;;;;14.50;100.00;100518.78;5071481;28;20930;-46
2022/09/14 02:01:18;;;;;;;13.57;6.20;;;;;;;14.46;100.00;100524.81;5072092;28;20445;-45
2022/09/14 02:03:50;;;;;;;9.70;5.40;;;;;;;14.43;100.00;100522.59;5075698;28;20417;-47
2022/09/14 02:06:25;;;;;;;20.53;7.43;;;;;;;14.40;100.00;100522.00;5075487;28;20432;-49
2022/09/14 02:08:54;;;;;;;14.57;7.10;;;;;;;14.39;100.00;100522.25;5074816;28;20567;-42
2022/09/14 02:11:21;;;;;;;11.90;7.17;;;;;;;14.39;100.00;100525.72;5075428;28;20499;-42
2022/09/14 02:13:50;;;;;;;12.50;7.00;;;;;;;14.42;100.00;100518.31;5075341;28;20842;-45
2022/09/14 02:16:18;;;;;;;14.23;6.90;;;;;;;14.44;100.00;100522.38;5075584;28;20827;-54
2022/09/14 02:18:46;;;;;;;10.43;6.67;;;;;;;14.49;100.00;100516.31;5075069;28;20946;-49
2022/09/14 02:21:17;;;;;;;8.70;6.63;;;;;;;14.50;100.00;100517.97;5074590;28;20835;-50
2022/09/14 02:23:46;;;;;;;8.97;6.33;;;;;;;14.55;100.00;100505.50;5075062;28;20484;-52
2022/09/14 02:26:15;;;;;;;9.00;6.10;;;;;;;14.59;100.00;100519.28;5075063;28;20476;-50
2022/09/14 02:28:43;;;;;;;10.13;6.20;;;;;;;14.63;100.00;100518.63;5075060;28;20472;-52
2022/09/14 02:31:23;;;;;;;7.47;5.90;;;;;;;14.65;100.00;100513.84;5074019;28;21060;-53
2022/09/14 02:34:00;;;;;;;12.77;5.47;;;;;;;14.66;100.00;100507.44;5074560;28;20465;-51
2022/09/14 02:36:35;;;;;;;14.97;7.37;;;;;;;14.65;100.00;100508.47;5074954;28;20515;-54
2022/09/14 02:39:11;;;;;;;10.00;6.47;;;;;;;14.66;100.00;100504.75;5074411;28;20479;-49
2022/09/14 02:41:45;;;;;;;11.87;5.90;;;;;;;14.67;100.00;100506.38;5074721;28;20511;-48
2022/09/14 02:44:30;;;;;;;13.77;6.67;;;;;;;14.68;100.00;100507.19;5074415;28;20446;-50
2022/09/14 02:47:04;;;;;;;9.30;5.80;;;;;;;14.67;100.00;100503.69;5074811;28;20452;-48
2022/09/14 02:49:43;;;;;;;8.67;5.73;;;;;;;14.66;100.00;100495.88;5074255;28;20462;-54
2022/09/14 02:52:16;;;;;;;6.70;5.73;;;;;;;14.64;100.00;100496.09;5072017;28;20447;-51
2022/09/14 02:54:51;;;;;;;8.40;6.07;;;;;;;14.62;100.00;100494.69;5074601;28;20484;-47
2022/09/14 02:57:18;;;;;;;7.33;5.40;;;;;;;14.60;100.00;100494.94;5074587;28;20477;-51
2022/09/14 02:59:46;;;;;;;6.47;5.00;;;;;;;14.55;100.00;100493.94;5074049;28;20869;-51
2022/09/14 03:02:15;;;;;;;15.27;6.57;;;;;;;14.51;100.00;100482.06;5074124;28;20788;-46
2022/09/14 03:04:43;;;;;;;6.17;5.57;;;;;;;14.49;100.00;100484.94;5074268;28;20488;-50
2022/09/14 03:07:10;;;;;;;10.10;6.03;;;;;;;14.45;100.00;100486.47;5072085;28;20430;-47
2022/09/14 03:09:38;;;;;;;8.40;5.43;;;;;;;14.40;100.00;100480.94;5073131;28;20454;-47
2022/09/14 03:12:06;;;;;;;8.63;6.03;;;;;;;14.33;100.00;100483.75;5073638;28;20511;-46
2022/09/14 03:14:34;;;;;;;6.73;5.97;;;;;;;14.29;100.00;100482.53;5078790;28;20483;-48
2022/09/14 03:17:01;;;;;;;12.50;5.07;;;;;;;14.27;100.00;100481.94;5074129;28;20539;-52
2022/09/14 03:19:30;;;;;;;9.57;5.20;;;;;;;14.24;100.00;100482.41;5074128;28;20543;-55
2022/09/14 03:21:58;;;;;;;9.30;5.13;;;;;;;14.23;100.00;100477.25;5074284;28;20512;-53
2022/09/14 03:24:26;;;;;;;8.60;5.50;;;;;;;14.23;100.00;100482.59;5073459;28;20441;-53
2022/09/14 03:26:53;;;;;;;8.67;5.23;;;;;;;14.23;100.00;100482.59;5073544;28;20422;-53
2022/09/14 03:29:21;;;;;;;7.70;5.00;;;;;;;14.20;100.00;100481.19;5072619;28;20458;-56
2022/09/14 03:31:48;;;;;;;5.70;5.20;;;;;;;14.19;100.00;100489.47;5073484;28;20971;-53
2022/09/14 03:34:16;;;;;;;13.57;4.97;;;;;;;14.17;100.00;100489.69;5073462;28;20533;-48
2022/09/14 03:36:45;;;;;;;8.90;5.50;;;;;;;14.18;100.00;100487.84;5073791;28;20477;-51
2022/09/14 03:39:13;;;;;;;10.00;5.23;;;;;;;14.19;100.00;100486.78;5073323;28;20458;-55
2022/09/14 03:41:40;;;;;;;5.73;4.70;;;;;;;14.19;100.00;100479.56;5073546;28;20478;-54
2022/09/14 03:44:09;;;;;;;8.33;4.90;;;;;;;14.20;100.00;100478.53;5073411;28;20431;-51
2022/09/14 03:46:37;;;;;;;5.23;4.73;;;;;;;14.17;100.00;100468.25;5073463;28;20434;-55
2022/09/14 03:49:05;;;;;;;6.33;4.80;;;;;;;14.17;100.00;100462.88;5073048;28;20529;-50
2022/09/14 03:51:33;;;;;;;7.23;4.80;;;;;;;14.20;100.00;100462.44;5071809;28;21032;-50
2022/09/14 03:54:02;;;;;;;5.20;4.57;;;;;;;14.23;100.00;100458.47;5072284;28;20434;-53
2022/09/14 03:56:30;;;;;;;10.13;5.53;;;;;;;14.30;100.00;100461.88;5073237;28;20439;-55
2022/09/14 03:58:58;;;;;;;8.47;5.17;;;;;;;14.35;100.00;100459.38;5072905;28;20507;-56
2022/09/14 04:01:25;;;;;;;5.90;5.20;;;;;;;14.38;100.00;100456.22;5073333;28;20556;-56
2022/09/14 04:03:53;;;;;;;10.33;5.23;;;;;;;14.36;100.00;100459.16;5073149;28;20438;-49
2022/09/14 04:06:21;;;;;;;9.27;5.00;;;;;;;14.36;100.00;100451.09;5073228;28;20442;-51
2022/09/14 04:08:48;;;;;;;6.00;5.03;;;;;;;14.36;100.00;100450.28;5072676;28;20430;-51
2022/09/14 04:11:19;;;;;;;6.43;4.73;;;;;;;14.32;100.00;100454.41;5072991;28;20450;-56
2022/09/14 04:13:48;;;;;;;5.53;5.00;;;;;;;14.31;100.00;100453.59;5072596;28;20445;-54
2022/09/14 04:16:16;;;;;;;4.90;4.50;;;;;;;14.30;100.00;100446.63;5072825;28;20434;-50
2022/09/14 04:18:44;;;;;;;4.70;4.40;;;;;;;14.30;100.00;100449.31;5072960;28;20812;-55
2022/09/14 04:21:14;;;;;;;5.13;4.73;;;;;;;14.31;100.00;100452.78;5072294;28;21010;-54
2022/09/14 04:23:42;;;;;;;4.90;4.53;;;;;;;14.31;100.00;100461.66;5072404;28;20457;-52
2022/09/14 04:26:31;;;;;;;5.20;4.47;;;;;;;14.32;100.00;100447.22;5072186;28;20511;-53
2022/09/14 04:28:59;;;;;;;5.80;5.03;;;;;;;14.34;100.00;100445.13;5072220;28;20989;-55
2022/09/14 04:31:27;;;;;;;5.13;4.53;;;;;;;14.35;100.00;100451.31;5072506;28;20511;-52
2022/09/14 04:33:56;;;;;;;4.37;4.00;;;;;;;14.34;100.00;100445.13;5072416;28;20514;-55
2022/09/14 04:36:27;;;;;;;6.10;4.70;;;;;;;14.31;100.00;100452.78;5072969;28;20488;-52
2022/09/14 04:38:57;;;;;;;5.80;4.73;;;;;;;14.26;100.00;100455.34;5072081;28;20461;-55
2022/09/14 04:41:25;;;;;;;7.70;4.30;;;;;;;14.22;100.00;100449.59;5072469;28;20549;-54
2022/09/14 04:43:55;;;;;;;9.33;4.40;;;;;;;14.18;100.00;100451.13;5072337;28;20506;-49
2022/09/14 04:46:24;;;;;;;8.13;5.20;;;;;;;14.17;100.00;100444.09;5072357;28;20488;-55
2022/09/14 04:48:52;;;;;;;8.87;5.27;;;;;;;14.16;100.00;100447.00;5071821;28;20427;-51
2022/09/14 04:51:22;;;;;;;6.03;5.53;;;;;;;14.14;100.00;100446.41;5071995;28;20451;-50
2022/09/14 04:53:52;;;;;;;5.43;4.77;;;;;;;14.11;100.00;100439.66;5069846;28;20476;-49
2022/09/14 04:56:21;;;;;;;5.23;4.73;;;;;;;14.13;100.00;100434.88;5072277;28;20434;-45
2022/09/14 04:58:50;;;;;;;9.10;5.70;;;;;;;14.13;100.00;100442.09;5071563;28;20544;-47
2022/09/14 05:01:24;;;;;;;6.40;5.03;;;;;;;14.14;100.00;100444.56;5071894;28;20959;-46
2022/09/14 05:03:52;;;;;;;8.47;5.57;;;;;;;14.17;100.00;100438.75;5071759;28;20430;-48
2022/09/14 05:06:21;;;;;;;6.33;5.43;;;;;;;14.20;100.00;100440.16;5072153;28;20846;-47
2022/09/14 05:08:50;;;;;;;5.80;5.13;;;;;;;14.25;100.00;100443.78;5071644;28;20481;-49
2022/09/14 05:11:19;;;;;;;7.23;5.33;;;;;;;14.31;100.00;100448.22;5072266;28;20834;-49
2022/09/14 05:13:47;;;;;;;7.43;5.67;;;;;;;14.37;100.00;100450.03;5071671;28;20430;-47
2022/09/14 05:16:18;;;;;;;9.00;6.27;;;;;;;14.44;100.00;100447.25;5071671;28;20453;-48
2022/09/14 05:18:48;;;;;;;9.57;5.80;;;;;;;14.49;100.00;100447.38;5072009;28;20469;-52
2022/09/14 05:21:17;;;;;;;7.53;5.90;;;;;;;14.53;100.00;100448.56;5071678;28;20522;-54
2022/09/14 05:23:45;;;;;;;6.70;6.00;;;;;;;14.53;100.00;100456.63;5071501;28;20430;-52
2022/09/14 05:26:14;;;;;;;9.10;5.77;;;;;;;14.52;100.00;100454.97;5071765;28;20430;-49
2022/09/14 05:28:42;;;;;;;4.90;4.60;;;;;;;14.53;100.00;100453.13;5071604;28;20434;-55
2022/09/14 05:31:11;;;;;;;6.60;5.20;;;;;;;14.55;100.00;100449.16;5070991;28;21060;-54
2022/09/14 05:33:39;;;;;;;5.37;4.97;;;;;;;14.58;100.00;100450.56;5071533;28;20484;-50
2022/09/14 05:36:09;;;;;;;7.70;4.87;;;;;;;14.60;100.00;100453.84;5071348;28;20434;-53
2022/09/14 05:38:39;;;;;;;4.97;4.50;;;;;;;14.62;100.00;100449.88;5071572;28;20470;-54
2022/09/14 05:41:09;;;;;;;5.47;5.07;;;;;;;14.68;100.00;100443.59;5070998;28;20466;-51
2022/09/14 05:43:37;;;;;;;5.07;4.73;;;;;;;14.74;100.00;100448.03;5071583;28;20837;-53
2022/09/14 05:46:06;;;;;;;11.70;4.63;;;;;;;14.79;100.00;100448.16;5071551;28;20563;-54
2022/09/14 05:48:35;;;;;;;5.80;4.83;;;;;;;14.81;100.00;100454.09;5071530;28;20863;-54
2022/09/14 05:51:06;;;;;;;8.83;4.73;;;;;;;14.81;100.00;100456.00;5070873;28;20466;-53
2022/09/14 05:53:35;;;;;;;5.53;5.03;;;;;;;14.86;100.00;100448.88;5068436;28;20419;-51
2022/09/14 05:56:05;;;;;;;7.23;5.00;;;;;;;14.91;100.00;100451.69;5071345;28;20488;-50
2022/09/14 05:58:34;;;;;;;7.57;5.20;;;;;;;15.02;100.00;100442.03;5071280;28;20474;-50
2022/09/14 06:01:07;;;;;;;4.70;4.30;;;;;;;15.11;100.00;100446.00;5070790;28;20519;-51
2022/09/14 06:03:35;;;;;;;4.90;4.50;;;;;;;15.19;99.29;100444.81;5071170;28;20477;-53
2022/09/14 06:06:03;;;;;;;5.70;5.00;;;;;;;15.30;99.54;100452.03;5071804;28;20434;-53
2022/09/14 06:08:31;;;;;;;5.47;4.97;;;;;;;15.40;97.84;100449.59;5071305;28;20533;-48
2022/09/14 06:11:04;;;;;;;7.70;4.63;;;;;;;15.53;97.18;100449.38;5071078;28;20524;-53
2022/09/14 06:13:32;;;;;;;10.47;5.70;;;;;;;15.60;96.32;100442.00;5071200;28;20429;-52
2022/09/14 06:16:02;;;;;;;6.37;5.27;;;;;;;15.72;95.28;100439.28;5071314;28;21001;-53
2022/09/14 06:18:31;;;;;;;8.20;5.03;;;;;;;15.77;91.85;100442.91;5071407;28;20587;-53
2022/09/14 06:20:59;;;;;;;5.20;4.90;;;;;;;15.92;93.11;100434.31;5070887;28;20462;-49
2022/09/14 06:23:27;;;;;;;5.23;4.83;;;;;;;16.03;91.90;100438.88;5071320;28;20487;-51
2022/09/14 06:25:55;;;;;;;5.80;5.30;;;;;;;16.19;92.28;100442.66;5071203;28;20943;-52
2022/09/14 06:28:26;;;;;;;6.17;5.07;;;;;;;16.31;89.45;100433.47;5071142;28;20435;-47
2022/09/14 06:30:53;;;;;;;9.13;6.30;;;;;;;16.44;89.13;100435.03;5070372;28;20573;-54
2022/09/14 06:33:21;;;;;;;9.20;5.83;;;;;;;16.50;84.59;100434.06;5070753;28;20429;-51
2022/09/14 06:35:56;;;;;;;5.27;4.70;;;;;;;16.75;86.95;100437.25;5071240;28;20487;-49
2022/09/14 06:38:23;;;;;;;4.73;4.43;;;;;;;16.90;85.53;100445.56;5070926;28;20473;-51
2022/09/14 06:40:52;;;;;;;6.23;4.50;;;;;;;16.96;81.18;100441.91;5070313;28;20886;-54
2022/09/14 06:43:20;;;;;;;5.57;5.00;;;;;;;17.07;81.62;100448.25;5070728;28;20467;-48
2022/09/14 06:46:01;;;;;;;6.97;5.07;;;;;;;17.23;82.10;100446.63;5070908;28;20955;-50
2022/09/14 06:48:30;;;;;;;5.07;4.17;;;;;;;17.41;80.93;100438.25;5072429;28;20426;-53
2022/09/14 06:50:57;;;;;;;4.90;4.40;;;;;;;17.60;79.67;100445.00;5073969;28;20527;-54
2022/09/14 06:53:25;;;;;;;10.57;4.80;;;;;;;17.95;80.08;100442.75;5074042;28;20434;-48
2022/09/14 06:55:53;;;;;;;6.87;5.40;;;;;;;18.22;76.87;100437.38;5074369;28;20480;-54
2022/09/14 06:58:20;;;;;;;6.83;5.90;;;;;;;18.59;79.58;100440.22;5074225;28;20469;-52
2022/09/14 07:00:48;;;;;;;6.70;6.27;;;;;;;18.73;75.65;100442.22;5073828;28;21073;-52
2022/09/14 07:03:17;;;;;;;6.20;5.43;;;;;;;18.85;73.44;100444.75;5074113;28;20430;-46
2022/09/14 07:05:45;;;;;;;5.63;5.03;;;;;;;18.99;70.66;100450.56;5074209;28;20430;-49
2022/09/14 07:08:13;;;;;;;7.47;5.23;;;;;;;19.60;73.68;100443.66;5074004;28;20438;-52
2022/09/14 07:10:41;;;;;;;6.67;5.87;;;;;;;20.09;70.65;100444.97;5073563;28;20491;-52
2022/09/14 07:13:09;;;;;;;7.07;6.03;;;;;;;20.50;64.55;100445.06;5073976;28;20437;-48
2022/09/14 07:15:37;;;;;;;7.97;7.27;;;;;;;20.87;66.45;100445.66;5074387;28;20487;-49
2022/09/14 07:18:05;;;;;;;6.90;6.50;;;;;;;20.67;63.58;100445.66;5074263;28;20430;-49
2022/09/14 07:20:34;;;;;;;7.27;6.87;;;;;;;20.46;62.94;100436.66;5073535;28;20973;-54
2022/09/14 07:23:02;;;;;;;10.07;7.00;;;;;;;20.43;59.97;100448.03;5073804;28;20487;-50
2022/09/14 07:25:29;;;;;;;7.40;7.00;;;;;;;20.28;60.28;100439.91;5073672;28;20488;-48
2022/09/14 07:27:59;;;;;;;8.27;7.77;;;;;;;19.93;62.14;100443.28;5073919;28;20460;-49
2022/09/14 07:30:27;;;;;;;7.93;7.23;;;;;;;19.38;60.67;100451.09;5073134;28;20466;-51
2022/09/14 07:32:55;;;;;;;7.10;6.43;;;;;;;18.88;62.68;100449.66;5074087;28;20432;-49
2022/09/14 07:35:22;;;;;;;7.13;6.60;;;;;;;18.44;64.65;100457.06;5073832;28;20985;-49
2022/09/14 07:37:51;;;;;;;7.10;6.50;;;;;;;18.15;66.61;100458.38;5073653;28;20430;-50
2022/09/14 07:40:21;;;;;;;9.03;6.87;;;;;;;17.99;69.11;100451.16;5073226;28;20470;-48
2022/09/14 07:42:50;;;;;;;7.17;6.67;;;;;;;17.89;70.47;100456.44;5073423;28;20489;-47
2022/09/14 07:45:24;;;;;;;8.70;8.00;;;;;;;17.84;70.76;100451.78;5073533;28;20438;-52
2022/09/14 07:47:51;;;;;;;8.67;7.97;;;;;;;17.93;72.46;100447.59;5073451;28;20987;-53
2022/09/14 07:50:19;;;;;;;8.07;7.40;;;;;;;17.89;72.18;100449.13;5072812;28;20466;-52
2022/09/14 07:52:49;;;;;;;8.53;7.50;;;;;;;17.91;71.86;100447.03;5070714;28;20450;-45
2022/09/14 07:55:18;;;;;;;8.30;7.00;;;;;;;17.88;70.73;100446.72;5073304;28;20426;-52
2022/09/14 07:57:47;;;;;;;7.80;7.10;;;;;;;17.88;70.54;100452.94;5073390;28;20422;-52
2022/09/14 08:00:24;;;;;;;8.93;7.60;;;;;;;17.89;70.50;100451.84;5072424;28;20471;-53
2022/09/14 08:02:52;;;;;;;7.90;7.20;;;;;;;18.07;71.63;100453.44;5072756;28;20430;-54
2022/09/14 08:05:20;;;;;;;8.00;7.37;;;;;;;18.19;70.95;100452.19;5073303;28;20491;-54
2022/09/14 08:07:48;;;;;;;10.03;7.43;;;;;;;18.31;70.29;100449.34;5073295;28;20434;-49
2022/09/14 08:10:15;;;;;;;7.00;6.40;;;;;;;18.45;70.03;100441.69;5072487;28;20488;-53
2022/09/14 08:12:44;;;;;;;13.83;7.20;;;;;;;18.64;70.09;100453.75;5072694;28;20458;-49
2022/09/14 08:15:12;;;;;;;8.30;6.57;;;;;;;18.90;69.75;100447.53;5072898;28;20499;-51
2022/09/14 08:17:40;;;;;;;8.40;7.30;;;;;;;19.38;67.29;100443.81;5072688;28;20491;-51
2022/09/14 08:20:08;;;;;;;7.23;6.57;;;;;;;19.70;66.43;100441.84;5072326;28;20470;-54
2022/09/14 08:22:35;;;;;;;7.60;6.90;;;;;;;20.18;65.46;100442.56;5072321;28;20449;-48
2022/09/14 08:25:03;;;;;;;6.70;6.40;;;;;;;20.40;63.49;100438.56;5072662;28;20484;-47
2022/09/14 08:27:31;;;;;;;7.30;6.73;;;;;;;20.69;62.51;100435.34;5072683;28;20499;-49
2022/09/14 08:30:00;;;;;;;6.83;6.00;;;;;;;20.96;61.09;100439.44;5071887;28;20878;-53
2022/09/14 08:32:28;;;;;;;8.00;6.23;;;;;;;20.86;59.01;100431.28;5072559;28;20468;-50
2022/09/14 08:34:56;;;;;;;9.37;6.33;;;;;;;20.57;61.40;100418.53;5072493;28;20437;-50
2022/09/14 08:37:23;;;;;;;6.30;5.70;;;;;;;20.33;60.40;100415.53;5072606;28;20790;-49
2022/09/14 08:39:52;;;;;;;6.60;6.00;;;;;;;19.94;59.47;100417.03;5071947;28;20473;-49
2022/09/14 08:42:23;;;;;;;7.23;5.53;;;;;;;19.63;60.68;100416.09;5071983;28;20895;-51
2022/09/14 08:44:56;;;;;;;6.87;5.97;;;;;;;19.37;63.27;100423.25;5072545;28;20426;-47
2022/09/14 08:47:27;;;;;;;6.50;6.00;;;;;;;18.77;64.35;100423.63;5072552;28;20456;-49
2022/09/14 08:50:00;;;;;;;6.00;5.70;;;;;;;18.35;65.81;100433.47;5071834;28;20869;-50
2022/09/14 08:52:33;;;;;;;11.20;6.80;;;;;;;18.48;67.97;100431.19;5071794;28;20495;-52
2022/09/14 08:55:02;;;;;;;6.40;5.73;;;;;;;18.75;67.54;100432.00;5071899;28;21000;-49
2022/09/14 08:57:40;;;;;;;6.80;6.20;;;;;;;18.71;67.05;100424.66;5072247;28;20845;-48
2022/09/14 09:00:12;;;;;;;11.80;6.20;;;;;;;18.79;67.08;100429.56;5071707;28;21240;-52
2022/09/14 09:02:56;;;;;;;5.83;5.30;;;;;;;18.98;67.68;100420.00;5071924;28;20896;-54
2022/09/14 09:05:35;;;;;;;7.00;5.77;;;;;;;19.05;62.16;100420.63;5071973;28;20434;-49
2022/09/14 09:08:13;;;;;;;9.30;4.57;;;;;;;18.93;61.79;100422.69;5072233;28;20434;-54
2022/09/14 09:10:41;;;;;;;7.17;4.70;;;;;;;18.53;62.96;100430.44;5070910;28;20480;-53
2022/09/14 09:13:13;;;;;;;4.60;4.20;;;;;;;18.32;61.99;100429.41;5071594;28;20434;-52
2022/09/14 09:15:45;;;;;;;9.80;4.50;;;;;;;18.21;60.58;100430.38;5071757;28;20446;-50
2022/09/14 09:18:19;;;;;;;4.73;4.43;;;;;;;18.05;62.37;100431.25;5072046;28;20499;-52
2022/09/14 09:20:51;;;;;;;4.50;4.20;;;;;;;18.39;64.17;100426.50;5071195;28;20473;-49
2022/09/14 09:23:21;;;;;;;4.97;4.57;;;;;;;18.89;63.64;100420.75;5071521;28;20426;-54
2022/09/14 09:25:57;;;;;;;6.10;4.60;;;;;;;19.69;61.69;100423.16;5071790;28;20500;-54
2022/09/14 09:28:27;;;;;;;5.90;4.53;;;;;;;20.24;57.70;100423.34;5071523;28;20430;-55
2022/09/14 09:30:57;;;;;;;5.03;3.97;;;;;;;20.21;54.85;100414.94;5071094;28;20466;-51
2022/09/14 09:33:27;;;;;;;6.20;4.60;;;;;;;20.13;56.30;100420.88;5071585;28;20795;-48
2022/09/14 09:35:55;;;;;;;9.03;4.00;;;;;;;20.00;55.26;100421.38;5071991;28;20495;-50
2022/09/14 09:38:25;;;;;;;4.57;4.17;;;;;;;19.83;56.27;100427.03;5071651;28;20514;-49
2022/09/14 09:40:56;;;;;;;4.50;3.73;;;;;;;19.15;55.66;100428.78;5070831;28;20473;-55
2022/09/14 09:43:24;;;;;;;7.73;4.07;;;;;;;19.18;58.20;100425.56;5071499;28;20434;-54
2022/09/14 09:46:12;;;;;;;4.57;4.00;;;;;;;19.06;58.99;100427.63;5071984;28;20434;-49
2022/09/14 09:48:43;;;;;;;5.10;4.17;;;;;;;18.89;59.45;100429.66;5071413;28;20951;-51
2022/09/14 09:51:13;;;;;;;4.47;4.17;;;;;;;18.62;59.86;100437.81;5071307;28;20466;-49
2022/09/14 09:53:48;;;;;;;6.27;4.30;;;;;;;18.49;60.75;100432.81;5068763;28;20422;-53
2022/09/14 09:56:21;;;;;;;10.47;4.93;;;;;;;18.40;62.47;100428.13;5051589;28;21074;-52
2022/09/14 09:58:50;;;;;;;5.17;4.83;;;;;;;18.30;64.46;100428.03;5050972;28;20492;-53
2022/09/14 10:01:21;;;;;;;5.57;5.13;;;;;;;18.24;64.41;100422.59;5051130;28;20497;-55
2022/09/14 10:04:03;;;;;;;9.43;5.20;;;;;;;18.25;64.51;100428.78;5051008;28;20477;-55
2022/09/14 10:06:31;;;;;;;10.50;4.33;;;;;;;18.24;64.91;100436.06;5051526;28;20500;-51
2022/09/14 10:08:59;;;;;;;6.37;5.23;;;;;;;18.20;64.91;100440.34;5050808;28;20438;-54
2022/09/14 10:11:30;;;;;;;7.73;4.50;;;;;;;18.08;65.95;100438.84;5051079;28;20936;-52
2022/09/14 10:13:58;;;;;;;5.03;4.37;;;;;;;18.20;62.69;100429.53;5051026;28;20500;-54
2022/09/14 10:16:33;;;;;;;4.93;4.30;;;;;;;18.35;63.61;100420.78;5051120;28;20492;-54
2022/09/14 10:19:03;;;;;;;5.40;4.87;;;;;;;18.59;63.60;100424.81;5050862;28;20434;-54
2022/09/14 10:21:31;;;;;;;5.70;4.73;;;;;;;18.82;62.62;100422.88;5051073;28;20528;-53
2022/09/14 10:24:15;;;;;;;9.00;3.93;;;;;;;19.07;61.73;100415.75;5053345;28;20439;-54
2022/09/14 10:26:43;;;;;;;4.40;3.93;;;;;;;19.46;62.12;100413.59;5054805;28;20430;-53
2022/09/14 10:29:35;;;;;;;5.20;3.77;;;;;;;19.70;60.14;100412.06;5054727;28;20455;-55
2022/09/14 10:32:14;;;;;;;4.63;4.33;;;;;;;19.56;59.28;100416.31;5054566;28;20520;-52
2022/09/14 10:34:43;;;;;;;14.37;5.37;;;;;;;19.90;58.70;100403.22;5054961;28;20492;-54
2022/09/14 10:37:30;;;;;;;4.43;4.00;;;;;;;20.09;59.12;100406.25;5054732;28;20430;-50
2022/09/14 10:40:13;;;;;;;5.13;4.47;;;;;;;20.03;57.82;100402.72;5054420;28;20513;-50
2022/09/14 10:42:48;;;;;;;4.40;4.10;;;;;;;19.88;57.06;100406.19;5054470;28;20820;-53
2022/09/14 10:45:19;;;;;;;4.77;4.47;;;;;;;19.57;57.93;100411.72;5054585;28;20433;-49
2022/09/14 10:48:15;;;;;;;4.23;3.83;;;;;;;19.24;58.34;100404.75;5054783;28;20772;-55
2022/09/14 10:50:54;;;;;;;4.40;4.00;;;;;;;18.91;62.67;100405.91;5038016;28;20470;-49
2022/09/14 10:53:39;;;;;;;5.40;4.10;;;;;;;18.95;62.11;100403.50;5070421;28;20429;-52
2022/09/14 10:56:15;;;;;;;4.63;3.97;;;;;;;18.75;62.98;100398.78;5074522;28;20506;-49
2022/09/14 10:59:06;;;;;;;5.13;4.63;;;;;;;18.60;63.68;100395.94;5074559;28;20434;-50
2022/09/14 11:01:53;;;;;;;7.47;4.60;;;;;;;18.70;61.76;100399.53;5074062;28;20473;-54
2022/09/14 11:04:41;;;;;;;5.30;4.83;;;;;;;18.75;62.98;100398.78;5074107;28;20434;-50
2022/09/14 11:07:21;;;;;;;6.73;4.83;;;;;;;18.97;61.89;100398.63;5074369;28;20480;-53
2022/09/14 11:09:56;;;;;;;5.73;5.33;;;;;;;19.20;60.50;100398.28;5073636;28;20519;-53
2022/09/14 11:12:34;;;;;;;4.47;4.17;;;;;;;19.07;58.00;100402.25;5073715;28;20493;-54
2022/09/14 11:15:15;;;;;;;4.40;4.10;;;;;;;18.83;57.50;100400.16;5074315;28;20433;-53
2022/09/14 11:17:57;;;;;;;10.20;4.13;;;;;;;18.78;58.60;100399.06;5074097;28;20487;-51
2022/09/14 11:20:31;;;;;;;3.60;3.30;;;;;;;18.72;57.35;100404.69;5073429;28;20981;-53
2022/09/14 11:23:13;;;;;;;3.77;3.43;;;;;;;18.61;57.92;100394.84;5073634;28;20426;-50
2022/09/14 11:25:47;;;;;;;3.57;3.37;;;;;;;18.40;61.56;100396.53;5074049;28;20853;-52
2022/09/14 11:28:19;;;;;;;3.83;3.63;;;;;;;18.36;58.73;100390.03;5074052;28;20476;-53
2022/09/14 11:30:52;;;;;;;6.03;3.70;;;;;;;18.58;60.24;100392.66;5073179;28;20499;-51
2022/09/14 11:33:25;;;;;;;3.50;3.40;;;;;;;18.80;57.86;100385.28;5073389;28;20422;-54
2022/09/14 11:36:01;;;;;;;5.43;4.40;;;;;;;18.83;57.40;100389.34;5073784;28;20528;-54
2022/09/14 11:38:36;;;;;;;3.93;3.73;;;;;;;18.61;60.25;100397.56;5073627;28;20961;-53